sensor_id;sensor_type;location;lat;lon;timestamp;temperature;humidity
2042;DHT22;1026;51.460;7.252;2022-10-16T00:02:20;14.50;94.30
2042;DHT22;1026;51.460;7.252;2022-10-16T00:04:45;14.50;94.30
2042;DHT22;1026;51.460;7.252;2022-10-16T00:07:11;14.50;94.30
2042;DHT22;1026;51.460;7.252;2022-10-16T00:09:37;14.50;94.30
2042;DHT22;1026;51.460;7.252;2022-10-16T00:12:03;14.50;94.30
2042;DHT22;1026;51.460;7.252;2022-10-16T00:14:29;14.50;94.30
2042;DHT22;1026;51.460;7.252;2022-10-16T00:16:55;14.50;94.40
2042;DHT22;1026;51.460;7.252;2022-10-16T00:19:21;14.50;94.30
2042;DHT22;1026;51.460;7.252;2022-10-16T00:21:46;14.50;94.40
2042;DHT22;1026;51.460;7.252;2022-10-16T00:24:12;14.50;94.40
2042;DHT22;1026;51.460;7.252;2022-10-16T00:26:38;14.40;94.30
2042;DHT22;1026;51.460;7.252;2022-10-16T00:29:04;14.40;94.40
2042;DHT22;1026;51.460;7.252;2022-10-16T00:31:30;14.40;94.40
2042;DHT22;1026;51.460;7.252;2022-10-16T00:33:56;14.40;94.40
2042;DHT22;1026;51.460;7.252;2022-10-16T00:36:23;14.30;94.30
2042;DHT22;1026;51.460;7.252;2022-10-16T00:38:51;14.40;94.40
2042;DHT22;1026;51.460;7.252;2022-10-16T00:41:19;14.40;94.40
2042;DHT22;1026;51.460;7.252;2022-10-16T00:46:23;14.30;94.40
2042;DHT22;1026;51.460;7.252;2022-10-16T00:48:59;14.40;94.50
2042;DHT22;1026;51.460;7.252;2022-10-16T00:51:32;14.40;94.50
2042;DHT22;1026;51.460;7.252;2022-10-16T00:53:59;14.40;94.50
2042;DHT22;1026;51.460;7.252;2022-10-16T00:56:25;14.30;94.40
2042;DHT22;1026;51.460;7.252;2022-10-16T00:58:51;14.30;94.40
2042;DHT22;1026;51.460;7.252;2022-10-16T01:01:16;14.30;94.50
2042;DHT22;1026;51.460;7.252;2022-10-16T01:03:42;14.20;94.40
2042;DHT22;1026;51.460;7.252;2022-10-16T01:06:22;14.30;94.40
2042;DHT22;1026;51.460;7.252;2022-10-16T01:11:37;14.30;94.50
2042;DHT22;1026;51.460;7.252;2022-10-16T01:14:15;14.30;94.80
2042;DHT22;1026;51.460;7.252;2022-10-16T01:16:50;14.30;94.50
2042;DHT22;1026;51.460;7.252;2022-10-16T01:22:14;14.30;94.50
2042;DHT22;1026;51.460;7.252;2022-10-16T01:24:44;14.30;94.60
2042;DHT22;1026;51.460;7.252;2022-10-16T01:27:24;14.20;94.50
2042;DHT22;1026;51.460;7.252;2022-10-16T01:29:53;14.30;94.60
2042;DHT22;1026;51.460;7.252;2022-10-16T01:37:36;14.30;94.60
2042;DHT22;1026;51.460;7.252;2022-10-16T01:40:07;14.30;94.60
2042;DHT22;1026;51.460;7.252;2022-10-16T01:42:37;14.30;94.60
2042;DHT22;1026;51.460;7.252;2022-10-16T01:45:05;14.20;94.60
2042;DHT22;1026;51.460;7.252;2022-10-16T01:47:33;14.20;94.60
2042;DHT22;1026;51.460;7.252;2022-10-16T01:50:02;14.20;94.60
2042;DHT22;1026;51.460;7.252;2022-10-16T01:52:32;14.20;94.60
2042;DHT22;1026;51.460;7.252;2022-10-16T01:55:02;14.20;94.60
2042;DHT22;1026;51.460;7.252;2022-10-16T01:57:30;14.20;94.60
2042;DHT22;1026;51.460;7.252;2022-10-16T02:00:00;14.20;94.60
2042;DHT22;1026;51.460;7.252;2022-10-16T02:02:28;14.20;94.60
2042;DHT22;1026;51.460;7.252;2022-10-16T02:05:01;14.20;94.60
2042;DHT22;1026;51.460;7.252;2022-10-16T02:07:30;14.20;94.70
2042;DHT22;1026;51.460;7.252;2022-10-16T02:09:56;14.20;94.70
2042;DHT22;1026;51.460;7.252;2022-10-16T02:12:32;14.20;94.70
2042;DHT22;1026;51.460;7.252;2022-10-16T02:14:59;14.20;94.70
2042;DHT22;1026;51.460;7.252;2022-10-16T02:17:24;14.20;94.70
2042;DHT22;1026;51.460;7.252;2022-10-16T02:19:53;14.20;94.70
2042;DHT22;1026;51.460;7.252;2022-10-16T02:22:32;14.20;94.70
2042;DHT22;1026;51.460;7.252;2022-10-16T02:25:04;14.20;94.70
2042;DHT22;1026;51.460;7.252;2022-10-16T02:27:33;14.10;94.70
2042;DHT22;1026;51.460;7.252;2022-10-16T02:30:09;14.10;94.70
2042;DHT22;1026;51.460;7.252;2022-10-16T02:32:40;14.10;94.70
2042;DHT22;1026;51.460;7.252;2022-10-16T02:35:08;14.10;94.70
2042;DHT22;1026;51.460;7.252;2022-10-16T02:37:34;14.10;94.70
2042;DHT22;1026;51.460;7.252;2022-10-16T02:40:00;14.10;94.70
2042;DHT22;1026;51.460;7.252;2022-10-16T02:42:32;14.10;94.70
2042;DHT22;1026;51.460;7.252;2022-10-16T02:44:58;14.10;94.80
2042;DHT22;1026;51.460;7.252;2022-10-16T02:47:25;14.10;94.80
2042;DHT22;1026;51.460;7.252;2022-10-16T02:49:50;14.10;94.70
2042;DHT22;1026;51.460;7.252;2022-10-16T02:52:16;14.10;94.80
2042;DHT22;1026;51.460;7.252;2022-10-16T02:54:42;14.10;94.80
2042;DHT22;1026;51.460;7.252;2022-10-16T02:57:07;14.10;94.80
2042;DHT22;1026;51.460;7.252;2022-10-16T02:59:33;14.10;94.80
2042;DHT22;1026;51.460;7.252;2022-10-16T03:01:58;14.10;94.80
2042;DHT22;1026;51.460;7.252;2022-10-16T03:04:24;14.10;94.80
2042;DHT22;1026;51.460;7.252;2022-10-16T03:06:50;14.10;94.80
2042;DHT22;1026;51.460;7.252;2022-10-16T03:09:15;14.00;94.70
2042;DHT22;1026;51.460;7.252;2022-10-16T03:11:41;14.00;94.70
2042;DHT22;1026;51.460;7.252;2022-10-16T03:14:06;14.00;94.80
2042;DHT22;1026;51.460;7.252;2022-10-16T03:16:32;14.00;94.80
2042;DHT22;1026;51.460;7.252;2022-10-16T03:18:58;14.00;94.80
2042;DHT22;1026;51.460;7.252;2022-10-16T03:21:24;14.00;94.80
2042;DHT22;1026;51.460;7.252;2022-10-16T03:23:50;14.00;94.80
2042;DHT22;1026;51.460;7.252;2022-10-16T03:26:15;14.00;94.80
2042;DHT22;1026;51.460;7.252;2022-10-16T03:28:41;14.00;94.80
2042;DHT22;1026;51.460;7.252;2022-10-16T03:31:07;14.00;94.80
2042;DHT22;1026;51.460;7.252;2022-10-16T03:33:33;14.00;94.80
2042;DHT22;1026;51.460;7.252;2022-10-16T03:35:59;14.00;94.80
2042;DHT22;1026;51.460;7.252;2022-10-16T03:38:25;14.00;94.90
2042;DHT22;1026;51.460;7.252;2022-10-16T03:40:51;13.90;94.80
2042;DHT22;1026;51.460;7.252;2022-10-16T03:43:17;13.90;94.80
2042;DHT22;1026;51.460;7.252;2022-10-16T03:45:42;14.00;94.80
2042;DHT22;1026;51.460;7.252;2022-10-16T03:48:08;14.00;94.80
2042;DHT22;1026;51.460;7.252;2022-10-16T03:50:34;14.00;94.80
2042;DHT22;1026;51.460;7.252;2022-10-16T03:52:59;14.00;94.90
2042;DHT22;1026;51.460;7.252;2022-10-16T03:55:25;14.00;94.90
2042;DHT22;1026;51.460;7.252;2022-10-16T03:57:50;14.00;94.80
2042;DHT22;1026;51.460;7.252;2022-10-16T04:00:16;14.00;94.90
2042;DHT22;1026;51.460;7.252;2022-10-16T04:02:42;13.90;94.80
2042;DHT22;1026;51.460;7.252;2022-10-16T04:05:08;13.90;94.80
2042;DHT22;1026;51.460;7.252;2022-10-16T04:07:34;13.90;94.80
2042;DHT22;1026;51.460;7.252;2022-10-16T04:09:59;13.90;94.80
2042;DHT22;1026;51.460;7.252;2022-10-16T04:12:26;13.90;94.80
2042;DHT22;1026;51.460;7.252;2022-10-16T04:14:52;13.90;94.90
2042;DHT22;1026;51.460;7.252;2022-10-16T04:17:17;13.90;94.90
2042;DHT22;1026;51.460;7.252;2022-10-16T04:19:43;13.90;94.80
2042;DHT22;1026;51.460;7.252;2022-10-16T04:22:09;13.90;94.90
2042;DHT22;1026;51.460;7.252;2022-10-16T04:24:34;13.90;94.80
2042;DHT22;1026;51.460;7.252;2022-10-16T04:27:00;13.90;94.90
2042;DHT22;1026;51.460;7.252;2022-10-16T04:29:26;13.90;94.80
2042;DHT22;1026;51.460;7.252;2022-10-16T04:31:51;13.90;94.80
2042;DHT22;1026;51.460;7.252;2022-10-16T04:34:17;13.90;94.90
2042;DHT22;1026;51.460;7.252;2022-10-16T04:36:43;13.90;94.90
2042;DHT22;1026;51.460;7.252;2022-10-16T04:39:08;13.90;94.90
2042;DHT22;1026;51.460;7.252;2022-10-16T04:41:34;13.90;94.90
2042;DHT22;1026;51.460;7.252;2022-10-16T04:43:59;13.90;94.90
2042;DHT22;1026;51.460;7.252;2022-10-16T04:46:25;13.90;94.90
2042;DHT22;1026;51.460;7.252;2022-10-16T04:48:51;13.80;95.00
2042;DHT22;1026;51.460;7.252;2022-10-16T04:51:16;13.80;94.80
2042;DHT22;1026;51.460;7.252;2022-10-16T04:53:42;13.80;94.90
2042;DHT22;1026;51.460;7.252;2022-10-16T04:56:07;13.80;94.90
2042;DHT22;1026;51.460;7.252;2022-10-16T04:58:33;13.80;94.90
2042;DHT22;1026;51.460;7.252;2022-10-16T05:00:59;13.80;94.90
2042;DHT22;1026;51.460;7.252;2022-10-16T05:03:24;13.80;94.90
2042;DHT22;1026;51.460;7.252;2022-10-16T05:05:50;13.80;94.90
2042;DHT22;1026;51.460;7.252;2022-10-16T05:08:16;13.80;94.90
2042;DHT22;1026;51.460;7.252;2022-10-16T05:10:43;13.80;94.90
2042;DHT22;1026;51.460;7.252;2022-10-16T05:13:09;13.80;94.90
2042;DHT22;1026;51.460;7.252;2022-10-16T05:15:35;13.80;94.90
2042;DHT22;1026;51.460;7.252;2022-10-16T05:18:01;13.80;94.90
2042;DHT22;1026;51.460;7.252;2022-10-16T05:20:27;13.80;94.90
2042;DHT22;1026;51.460;7.252;2022-10-16T05:22:53;13.70;94.90
2042;DHT22;1026;51.460;7.252;2022-10-16T05:25:18;13.80;94.90
2042;DHT22;1026;51.460;7.252;2022-10-16T05:27:47;13.80;95.30
2042;DHT22;1026;51.460;7.252;2022-10-16T05:30:14;13.80;94.90
2042;DHT22;1026;51.460;7.252;2022-10-16T05:32:40;13.80;95.00
2042;DHT22;1026;51.460;7.252;2022-10-16T05:35:05;13.80;95.00
2042;DHT22;1026;51.460;7.252;2022-10-16T05:37:31;13.70;94.90
2042;DHT22;1026;51.460;7.252;2022-10-16T05:39:57;13.80;94.90
2042;DHT22;1026;51.460;7.252;2022-10-16T05:42:22;13.70;94.90
2042;DHT22;1026;51.460;7.252;2022-10-16T05:44:48;13.70;95.00
2042;DHT22;1026;51.460;7.252;2022-10-16T05:47:14;13.70;95.00
2042;DHT22;1026;51.460;7.252;2022-10-16T05:49:40;13.70;94.90
2042;DHT22;1026;51.460;7.252;2022-10-16T05:52:05;13.70;94.90
2042;DHT22;1026;51.460;7.252;2022-10-16T05:54:31;13.70;94.90
2042;DHT22;1026;51.460;7.252;2022-10-16T05:56:57;13.70;95.00
2042;DHT22;1026;51.460;7.252;2022-10-16T05:59:23;13.70;95.00
2042;DHT22;1026;51.460;7.252;2022-10-16T06:01:48;13.60;94.90
2042;DHT22;1026;51.460;7.252;2022-10-16T06:04:14;13.70;95.00
2042;DHT22;1026;51.460;7.252;2022-10-16T06:06:40;13.70;95.00
2042;DHT22;1026;51.460;7.252;2022-10-16T06:09:05;13.70;95.00
2042;DHT22;1026;51.460;7.252;2022-10-16T06:11:32;13.70;95.00
2042;DHT22;1026;51.460;7.252;2022-10-16T06:14:01;13.70;95.00
2042;DHT22;1026;51.460;7.252;2022-10-16T06:16:28;13.70;95.00
2042;DHT22;1026;51.460;7.252;2022-10-16T06:18:55;13.70;95.00
2042;DHT22;1026;51.460;7.252;2022-10-16T06:21:23;13.70;95.00
2042;DHT22;1026;51.460;7.252;2022-10-16T06:23:50;13.70;95.00
2042;DHT22;1026;51.460;7.252;2022-10-16T06:26:18;13.70;95.00
2042;DHT22;1026;51.460;7.252;2022-10-16T06:28:45;13.70;95.00
2042;DHT22;1026;51.460;7.252;2022-10-16T06:31:12;13.50;94.90
2042;DHT22;1026;51.460;7.252;2022-10-16T06:33:38;13.60;95.00
2042;DHT22;1026;51.460;7.252;2022-10-16T06:36:07;13.70;95.00
2042;DHT22;1026;51.460;7.252;2022-10-16T06:38:34;13.70;95.00
2042;DHT22;1026;51.460;7.252;2022-10-16T06:41:00;13.60;95.00
2042;DHT22;1026;51.460;7.252;2022-10-16T06:43:26;13.60;95.00
2042;DHT22;1026;51.460;7.252;2022-10-16T06:45:55;13.60;95.00
2042;DHT22;1026;51.460;7.252;2022-10-16T06:48:22;13.60;95.00
2042;DHT22;1026;51.460;7.252;2022-10-16T06:53:40;13.60;95.00
2042;DHT22;1026;51.460;7.252;2022-10-16T06:56:08;13.50;95.00
2042;DHT22;1026;51.460;7.252;2022-10-16T06:58:34;13.60;95.10
2042;DHT22;1026;51.460;7.252;2022-10-16T07:01:00;13.60;95.10
2042;DHT22;1026;51.460;7.252;2022-10-16T07:03:25;13.60;95.10
2042;DHT22;1026;51.460;7.252;2022-10-16T07:05:51;13.60;95.10
2042;DHT22;1026;51.460;7.252;2022-10-16T07:08:17;13.60;95.10
2042;DHT22;1026;51.460;7.252;2022-10-16T07:10:42;13.60;95.10
2042;DHT22;1026;51.460;7.252;2022-10-16T07:13:08;13.50;95.00
2042;DHT22;1026;51.460;7.252;2022-10-16T07:15:34;13.60;95.10
2042;DHT22;1026;51.460;7.252;2022-10-16T07:17:59;13.60;95.10
2042;DHT22;1026;51.460;7.252;2022-10-16T07:20:25;13.60;95.10
2042;DHT22;1026;51.460;7.252;2022-10-16T07:22:51;13.60;95.10
2042;DHT22;1026;51.460;7.252;2022-10-16T07:25:17;13.60;95.10
2042;DHT22;1026;51.460;7.252;2022-10-16T07:27:43;13.50;95.10
2042;DHT22;1026;51.460;7.252;2022-10-16T07:30:09;13.60;95.10
2042;DHT22;1026;51.460;7.252;2022-10-16T07:32:35;13.60;95.10
2042;DHT22;1026;51.460;7.252;2022-10-16T07:35:00;13.60;95.10
2042;DHT22;1026;51.460;7.252;2022-10-16T07:37:26;13.60;95.10
2042;DHT22;1026;51.460;7.252;2022-10-16T07:39:52;13.60;95.10
2042;DHT22;1026;51.460;7.252;2022-10-16T07:42:17;13.60;95.10
2042;DHT22;1026;51.460;7.252;2022-10-16T07:44:43;13.60;95.10
2042;DHT22;1026;51.460;7.252;2022-10-16T07:47:09;13.60;95.10
2042;DHT22;1026;51.460;7.252;2022-10-16T07:49:34;13.60;95.10
2042;DHT22;1026;51.460;7.252;2022-10-16T07:52:00;13.60;95.10
2042;DHT22;1026;51.460;7.252;2022-10-16T07:54:25;13.60;95.10
2042;DHT22;1026;51.460;7.252;2022-10-16T07:56:51;13.60;95.10
2042;DHT22;1026;51.460;7.252;2022-10-16T07:59:17;13.50;95.00
2042;DHT22;1026;51.460;7.252;2022-10-16T08:01:43;13.40;95.00
2042;DHT22;1026;51.460;7.252;2022-10-16T08:04:10;13.60;95.10
2042;DHT22;1026;51.460;7.252;2022-10-16T08:06:38;13.60;95.10
2042;DHT22;1026;51.460;7.252;2022-10-16T08:09:05;13.60;95.20
2042;DHT22;1026;51.460;7.252;2022-10-16T08:11:30;13.60;95.20
2042;DHT22;1026;51.460;7.252;2022-10-16T08:13:56;13.50;95.10
2042;DHT22;1026;51.460;7.252;2022-10-16T08:16:22;13.60;95.20
2042;DHT22;1026;51.460;7.252;2022-10-16T08:18:47;13.50;95.20
2042;DHT22;1026;51.460;7.252;2022-10-16T08:21:16;13.60;95.20
2042;DHT22;1026;51.460;7.252;2022-10-16T08:23:42;13.60;95.30
2042;DHT22;1026;51.460;7.252;2022-10-16T08:26:10;13.50;95.20
2042;DHT22;1026;51.460;7.252;2022-10-16T08:28:36;13.60;95.30
2042;DHT22;1026;51.460;7.252;2022-10-16T08:33:32;13.60;95.30
2042;DHT22;1026;51.460;7.252;2022-10-16T08:36:00;13.50;95.20
2042;DHT22;1026;51.460;7.252;2022-10-16T08:38:25;13.60;95.30
2042;DHT22;1026;51.460;7.252;2022-10-16T08:40:52;13.60;95.30
2042;DHT22;1026;51.460;7.252;2022-10-16T08:46:05;13.60;95.30
2042;DHT22;1026;51.460;7.252;2022-10-16T08:48:52;13.50;95.30
2042;DHT22;1026;51.460;7.252;2022-10-16T08:51:22;13.60;95.30
2042;DHT22;1026;51.460;7.252;2022-10-16T08:53:56;13.50;95.20
2042;DHT22;1026;51.460;7.252;2022-10-16T08:56:24;13.60;95.20
2042;DHT22;1026;51.460;7.252;2022-10-16T08:58:50;13.60;95.30
2042;DHT22;1026;51.460;7.252;2022-10-16T09:01:19;13.60;95.30
2042;DHT22;1026;51.460;7.252;2022-10-16T09:06:19;13.60;95.20
2042;DHT22;1026;51.460;7.252;2022-10-16T09:11:48;13.60;95.20
2042;DHT22;1026;51.460;7.252;2022-10-16T09:23:18;13.60;95.20
2042;DHT22;1026;51.460;7.252;2022-10-16T09:25:47;13.60;95.20
2042;DHT22;1026;51.460;7.252;2022-10-16T09:28:13;13.60;95.20
2042;DHT22;1026;51.460;7.252;2022-10-16T09:30:40;13.60;95.20
2042;DHT22;1026;51.460;7.252;2022-10-16T09:33:06;13.60;95.20
2042;DHT22;1026;51.460;7.252;2022-10-16T09:35:50;13.60;95.20
2042;DHT22;1026;51.460;7.252;2022-10-16T09:38:26;13.60;95.20
2042;DHT22;1026;51.460;7.252;2022-10-16T09:40:54;13.60;95.20
2042;DHT22;1026;51.460;7.252;2022-10-16T09:45:59;13.70;95.10
2042;DHT22;1026;51.460;7.252;2022-10-16T09:48:39;13.60;95.10
2042;DHT22;1026;51.460;7.252;2022-10-16T09:51:18;13.70;95.10
2042;DHT22;1026;51.460;7.252;2022-10-16T09:53:46;13.70;95.10
2042;DHT22;1026;51.460;7.252;2022-10-16T09:56:22;13.70;95.10
2042;DHT22;1026;51.460;7.252;2022-10-16T09:58:53;13.70;95.10
2042;DHT22;1026;51.460;7.252;2022-10-16T10:01:20;13.70;95.10
2042;DHT22;1026;51.460;7.252;2022-10-16T10:03:46;13.70;95.10
2042;DHT22;1026;51.460;7.252;2022-10-16T10:09:04;13.70;95.10
2042;DHT22;1026;51.460;7.252;2022-10-16T10:11:50;13.70;95.10
2042;DHT22;1026;51.460;7.252;2022-10-16T10:14:20;13.60;95.00
2042;DHT22;1026;51.460;7.252;2022-10-16T10:16:47;13.70;95.10
2042;DHT22;1026;51.460;7.252;2022-10-16T10:19:16;13.70;95.10
2042;DHT22;1026;51.460;7.252;2022-10-16T10:21:42;13.70;95.10
2042;DHT22;1026;51.460;7.252;2022-10-16T10:24:11;13.70;95.10
2042;DHT22;1026;51.460;7.252;2022-10-16T10:26:38;13.70;95.10
2042;DHT22;1026;51.460;7.252;2022-10-16T10:29:20;13.70;95.10
2042;DHT22;1026;51.460;7.252;2022-10-16T10:42:53;13.80;95.10
2042;DHT22;1026;51.460;7.252;2022-10-16T10:45:28;13.70;95.00
2042;DHT22;1026;51.460;7.252;2022-10-16T10:53:45;13.80;95.10
2042;DHT22;1026;51.460;7.252;2022-10-16T11:04:22;13.80;95.00
2042;DHT22;1026;51.460;7.252;2022-10-16T11:09:37;13.80;95.00
2042;DHT22;1026;51.460;7.252;2022-10-16T11:12:25;13.80;95.00
2042;DHT22;1026;51.460;7.252;2022-10-16T11:15:17;13.70;94.90
2042;DHT22;1026;51.460;7.252;2022-10-16T11:18:04;13.80;95.00
2042;DHT22;1026;51.460;7.252;2022-10-16T11:20:45;13.80;94.90
2042;DHT22;1026;51.460;7.252;2022-10-16T11:23:20;13.80;95.00
2042;DHT22;1026;51.460;7.252;2022-10-16T11:25:49;13.90;95.00
2042;DHT22;1026;51.460;7.252;2022-10-16T11:37:11;13.90;94.90
2042;DHT22;1026;51.460;7.252;2022-10-16T11:39:38;13.90;94.90
2042;DHT22;1026;51.460;7.252;2022-10-16T11:44:57;13.80;94.90
2042;DHT22;1026;51.460;7.252;2022-10-16T11:55:48;13.90;94.90
2042;DHT22;1026;51.460;7.252;2022-10-16T12:00:53;13.90;94.90
2042;DHT22;1026;51.460;7.252;2022-10-16T12:03:56;14.00;94.90
2042;DHT22;1026;51.460;7.252;2022-10-16T12:06:33;14.00;94.90
2042;DHT22;1026;51.460;7.252;2022-10-16T12:09:01;14.00;94.90
2042;DHT22;1026;51.460;7.252;2022-10-16T12:14:20;14.00;94.80
2042;DHT22;1026;51.460;7.252;2022-10-16T12:16:59;14.00;94.80
2042;DHT22;1026;51.460;7.252;2022-10-16T12:19:28;14.00;94.80
2042;DHT22;1026;51.460;7.252;2022-10-16T12:21:56;14.00;94.80
2042;DHT22;1026;51.460;7.252;2022-10-16T12:26:56;14.00;94.70
2042;DHT22;1026;51.460;7.252;2022-10-16T12:29:38;14.00;94.70
2042;DHT22;1026;51.460;7.252;2022-10-16T12:34:47;14.00;94.70
2042;DHT22;1026;51.460;7.252;2022-10-16T12:37:21;14.10;94.80
2042;DHT22;1026;51.460;7.252;2022-10-16T12:39:48;14.10;94.80
2042;DHT22;1026;51.460;7.252;2022-10-16T12:44:49;13.90;94.60
2042;DHT22;1026;51.460;7.252;2022-10-16T12:49:53;14.00;94.60
2042;DHT22;1026;51.460;7.252;2022-10-16T12:52:36;14.10;94.70
2042;DHT22;1026;51.460;7.252;2022-10-16T12:55:04;14.10;94.70
2042;DHT22;1026;51.460;7.252;2022-10-16T13:00:13;14.10;94.70
2042;DHT22;1026;51.460;7.252;2022-10-16T13:03:03;14.10;94.60
2042;DHT22;1026;51.460;7.252;2022-10-16T13:14:39;14.10;94.50
2042;DHT22;1026;51.460;7.252;2022-10-16T13:25:25;14.20;94.50
2042;DHT22;1026;51.460;7.252;2022-10-16T13:28:09;14.20;94.50
2042;DHT22;1026;51.460;7.252;2022-10-16T13:30:40;14.20;94.50
2042;DHT22;1026;51.460;7.252;2022-10-16T13:35:50;14.20;94.40
2042;DHT22;1026;51.460;7.252;2022-10-16T13:38:20;14.30;94.40
2042;DHT22;1026;51.460;7.252;2022-10-16T13:41:03;14.10;94.30
2042;DHT22;1026;51.460;7.252;2022-10-16T13:43:49;14.20;94.30
2042;DHT22;1026;51.460;7.252;2022-10-16T13:46:18;14.20;94.40
2042;DHT22;1026;51.460;7.252;2022-10-16T13:48:55;14.30;94.40
2042;DHT22;1026;51.460;7.252;2022-10-16T13:51:22;14.30;94.40
2042;DHT22;1026;51.460;7.252;2022-10-16T13:53:48;14.30;94.40
2042;DHT22;1026;51.460;7.252;2022-10-16T13:56:16;14.30;94.40
2042;DHT22;1026;51.460;7.252;2022-10-16T13:58:42;14.30;94.40
2042;DHT22;1026;51.460;7.252;2022-10-16T14:01:24;14.20;94.20
2042;DHT22;1026;51.460;7.252;2022-10-16T14:03:51;14.30;94.30
2042;DHT22;1026;51.460;7.252;2022-10-16T14:06:20;14.30;94.30
2042;DHT22;1026;51.460;7.252;2022-10-16T14:08:55;14.30;94.20
2042;DHT22;1026;51.460;7.252;2022-10-16T14:11:22;14.30;94.20
2042;DHT22;1026;51.460;7.252;2022-10-16T14:13:50;14.30;94.20
2042;DHT22;1026;51.460;7.252;2022-10-16T14:16:20;14.30;94.20
2042;DHT22;1026;51.460;7.252;2022-10-16T14:18:56;14.40;94.20
2042;DHT22;1026;51.460;7.252;2022-10-16T14:21:22;14.40;94.20
2042;DHT22;1026;51.460;7.252;2022-10-16T14:23:48;14.40;94.20
2042;DHT22;1026;51.460;7.252;2022-10-16T14:26:17;14.40;94.10
2042;DHT22;1026;51.460;7.252;2022-10-16T14:28:44;14.40;94.10
2042;DHT22;1026;51.460;7.252;2022-10-16T14:31:27;14.40;94.10
2042;DHT22;1026;51.460;7.252;2022-10-16T14:33:53;14.40;94.10
2042;DHT22;1026;51.460;7.252;2022-10-16T14:36:19;14.40;94.10
2042;DHT22;1026;51.460;7.252;2022-10-16T14:39:03;14.40;94.10
2042;DHT22;1026;51.460;7.252;2022-10-16T14:41:31;14.40;94.10
2042;DHT22;1026;51.460;7.252;2022-10-16T14:44:02;14.50;94.10
2042;DHT22;1026;51.460;7.252;2022-10-16T14:49:18;14.50;94.00
2042;DHT22;1026;51.460;7.252;2022-10-16T14:51:45;14.50;94.30
2042;DHT22;1026;51.460;7.252;2022-10-16T14:54:13;14.50;94.00
2042;DHT22;1026;51.460;7.252;2022-10-16T14:56:49;14.50;94.00
2042;DHT22;1026;51.460;7.252;2022-10-16T15:01:45;14.50;94.10
2042;DHT22;1026;51.460;7.252;2022-10-16T15:04:12;14.50;94.00
2042;DHT22;1026;51.460;7.252;2022-10-16T15:06:38;14.40;93.90
2042;DHT22;1026;51.460;7.252;2022-10-16T15:09:03;14.50;94.00
2042;DHT22;1026;51.460;7.252;2022-10-16T15:11:31;14.50;94.00
2042;DHT22;1026;51.460;7.252;2022-10-16T15:13:57;14.50;94.00
2042;DHT22;1026;51.460;7.252;2022-10-16T15:16:23;14.50;94.00
2042;DHT22;1026;51.460;7.252;2022-10-16T15:18:49;14.50;94.10
2042;DHT22;1026;51.460;7.252;2022-10-16T15:21:23;14.60;94.20
2042;DHT22;1026;51.460;7.252;2022-10-16T15:23:49;14.60;94.00
2042;DHT22;1026;51.460;7.252;2022-10-16T15:26:16;14.60;94.10
2042;DHT22;1026;51.460;7.252;2022-10-16T15:28:41;14.60;94.00
2042;DHT22;1026;51.460;7.252;2022-10-16T15:31:07;14.60;94.10
2042;DHT22;1026;51.460;7.252;2022-10-16T15:33:33;14.60;93.90
2042;DHT22;1026;51.460;7.252;2022-10-16T15:36:01;14.50;93.80
2042;DHT22;1026;51.460;7.252;2022-10-16T15:38:28;14.50;93.80
2042;DHT22;1026;51.460;7.252;2022-10-16T15:40:54;14.60;94.00
2042;DHT22;1026;51.460;7.252;2022-10-16T15:43:20;14.60;94.00
2042;DHT22;1026;51.460;7.252;2022-10-16T15:46:06;14.60;93.90
2042;DHT22;1026;51.460;7.252;2022-10-16T15:48:32;14.60;93.90
2042;DHT22;1026;51.460;7.252;2022-10-16T15:50:59;14.60;93.90
2042;DHT22;1026;51.460;7.252;2022-10-16T15:53:24;14.60;93.80
2042;DHT22;1026;51.460;7.252;2022-10-16T15:55:50;14.60;93.90
2042;DHT22;1026;51.460;7.252;2022-10-16T15:58:16;14.60;93.90
2042;DHT22;1026;51.460;7.252;2022-10-16T16:00:41;14.60;93.90
2042;DHT22;1026;51.460;7.252;2022-10-16T16:03:08;14.60;93.90
2042;DHT22;1026;51.460;7.252;2022-10-16T16:05:37;14.60;93.90
2042;DHT22;1026;51.460;7.252;2022-10-16T16:08:03;14.60;93.90
2042;DHT22;1026;51.460;7.252;2022-10-16T16:10:29;14.70;93.90
2042;DHT22;1026;51.460;7.252;2022-10-16T16:12:54;14.70;93.90
2042;DHT22;1026;51.460;7.252;2022-10-16T16:15:21;14.60;93.80
2042;DHT22;1026;51.460;7.252;2022-10-16T16:17:47;14.70;93.90
2042;DHT22;1026;51.460;7.252;2022-10-16T16:20:14;14.60;93.90
2042;DHT22;1026;51.460;7.252;2022-10-16T16:22:40;14.60;93.80
2042;DHT22;1026;51.460;7.252;2022-10-16T16:25:05;14.70;94.00
2042;DHT22;1026;51.460;7.252;2022-10-16T16:27:31;14.70;93.90
2042;DHT22;1026;51.460;7.252;2022-10-16T16:30:00;14.60;93.90
2042;DHT22;1026;51.460;7.252;2022-10-16T16:32:26;14.60;93.90
2042;DHT22;1026;51.460;7.252;2022-10-16T16:34:51;14.70;93.90
2042;DHT22;1026;51.460;7.252;2022-10-16T16:37:17;14.70;93.90
2042;DHT22;1026;51.460;7.252;2022-10-16T16:39:43;14.60;93.90
2042;DHT22;1026;51.460;7.252;2022-10-16T16:42:08;14.70;93.90
2042;DHT22;1026;51.460;7.252;2022-10-16T16:44:35;14.70;93.90
2042;DHT22;1026;51.460;7.252;2022-10-16T16:47:02;14.60;94.00
2042;DHT22;1026;51.460;7.252;2022-10-16T16:49:29;14.70;94.00
2042;DHT22;1026;51.460;7.252;2022-10-16T16:51:54;14.70;94.10
2042;DHT22;1026;51.460;7.252;2022-10-16T16:54:20;14.70;94.00
2042;DHT22;1026;51.460;7.252;2022-10-16T16:56:46;14.70;94.00
2042;DHT22;1026;51.460;7.252;2022-10-16T16:59:13;14.60;94.00
2042;DHT22;1026;51.460;7.252;2022-10-16T17:01:40;14.60;94.00
2042;DHT22;1026;51.460;7.252;2022-10-16T17:04:06;14.70;94.10
2042;DHT22;1026;51.460;7.252;2022-10-16T17:06:32;14.70;94.00
2042;DHT22;1026;51.460;7.252;2022-10-16T17:08:58;14.70;94.10
2042;DHT22;1026;51.460;7.252;2022-10-16T17:11:26;14.60;94.00
2042;DHT22;1026;51.460;7.252;2022-10-16T17:13:53;14.70;94.10
2042;DHT22;1026;51.460;7.252;2022-10-16T17:16:21;14.70;94.00
2042;DHT22;1026;51.460;7.252;2022-10-16T17:18:47;14.60;94.10
2042;DHT22;1026;51.460;7.252;2022-10-16T17:21:13;14.70;94.00
2042;DHT22;1026;51.460;7.252;2022-10-16T17:23:39;14.70;94.10
2042;DHT22;1026;51.460;7.252;2022-10-16T17:26:08;14.70;94.00
2042;DHT22;1026;51.460;7.252;2022-10-16T17:28:34;14.70;94.10
2042;DHT22;1026;51.460;7.252;2022-10-16T17:33:34;14.70;94.10
2042;DHT22;1026;51.460;7.252;2022-10-16T17:36:00;14.70;94.10
2042;DHT22;1026;51.460;7.252;2022-10-16T17:38:26;14.70;94.10
2042;DHT22;1026;51.460;7.252;2022-10-16T17:40:51;14.60;94.10
2042;DHT22;1026;51.460;7.252;2022-10-16T17:43:17;14.60;94.10
2042;DHT22;1026;51.460;7.252;2022-10-16T17:45:43;14.60;94.20
2042;DHT22;1026;51.460;7.252;2022-10-16T17:48:08;14.60;94.10
2042;DHT22;1026;51.460;7.252;2022-10-16T17:50:39;14.60;94.10
2042;DHT22;1026;51.460;7.252;2022-10-16T17:53:04;14.50;94.10
2042;DHT22;1026;51.460;7.252;2022-10-16T17:55:30;14.60;94.20
2042;DHT22;1026;51.460;7.252;2022-10-16T17:57:56;14.70;94.20
2042;DHT22;1026;51.460;7.252;2022-10-16T18:00:22;14.70;94.30
2042;DHT22;1026;51.460;7.252;2022-10-16T18:02:48;14.70;94.30
2042;DHT22;1026;51.460;7.252;2022-10-16T18:05:14;14.60;94.20
2042;DHT22;1026;51.460;7.252;2022-10-16T18:07:40;14.70;94.30
2042;DHT22;1026;51.460;7.252;2022-10-16T18:10:06;14.60;94.30
2042;DHT22;1026;51.460;7.252;2022-10-16T18:12:34;14.60;94.30
2042;DHT22;1026;51.460;7.252;2022-10-16T18:14:59;14.60;94.30
2042;DHT22;1026;51.460;7.252;2022-10-16T18:17:26;14.60;94.30
2042;DHT22;1026;51.460;7.252;2022-10-16T18:19:51;14.60;94.30
2042;DHT22;1026;51.460;7.252;2022-10-16T18:22:17;14.60;94.30
2042;DHT22;1026;51.460;7.252;2022-10-16T18:24:42;14.60;94.40